Flight Track Log - Related Links

Times and Time Zones

All times are in EDT time to prevent confusion due to time zone crossing. See the FLG3776 flight status page for this flight to view local times or setup timezone preferences in your user account.

Time Position Orientation Groundspeed Altitude Reporting Facility
EDT Latitude Longitude Course Direction KTS MPH feet Rate Location/Type
Sun 09:06:25 PM 44.9103 -93.2308 117° Southeast 178 205 2,200  Level FAA TRACON SMA TRACON (SMA)
Sun 09:06:45 PM 44.9311 -93.2264 North 193 222 2,800 1,950 Climbing FAA TRACON SMA TRACON (SMA)
Sun 09:07:05 PM 44.9489 -93.2208 12° North 212 244 3,500 2,250 Climbing FAA TRACON SMA TRACON (SMA)
Sun 09:07:25 PM 44.9628 -93.2006 46° Northeast 237 273 4,300 1,950 Climbing FAA TRACON SMA TRACON (SMA)
Sun 09:07:45 PM 44.9764 -93.1658 61° Northeast 258 297 4,800 1,800 Climbing FAA TRACON SMA TRACON (SMA)
Sun 09:08:05 PM 44.9878 -93.1347 63° Northeast 283 326 5,500 1,950 Climbing FAA TRACON SMA TRACON (SMA)
Sun 09:08:25 PM 44.9922 -93.1000 80° East 299 344 6,100 2,550 Climbing FAA TRACON SMA TRACON (SMA)
Sun 09:08:45 PM 44.9850 -93.0569 103° East 299 344 7,200 2,850 Climbing FAA TRACON SMA TRACON (SMA)
Sun 09:09:00 PM 44.7066 -92.6394 118° Southeast  Level Estimated
Sun 09:09:05 PM 44.9719 -93.0278 122° Southeast 291 335 8,000  Level FAA TRACON SMA TRACON (SMA)
Sun 09:09:25 PM 44.9575 -92.9983 125° Southeast 293 337 8,800 2,550 Climbing FAA TRACON SMA TRACON (SMA)
Sun 09:09:45 PM 44.9392 -92.9614 125° Southeast 299 344 9,700 2,550 Climbing FAA TRACON SMA TRACON (SMA)
Sun 09:10:00 PM 44.6448 -92.5076 123° Southeast  Level FlightAware Approximate
Sun 09:10:05 PM 44.9244 -92.9311 124° Southeast 303 349 10,500  Level FAA TRACON SMA TRACON (SMA)
Sun 09:10:25 PM 44.9092 -92.9003 125° Southeast 309 356 10,800 439 Climbing FAA TRACON SMA TRACON (SMA)
Sun 09:10:46 PM 44.8883 -92.8586 125° Southeast 330 380 10,800 750 Level FAA TRACON SMA TRACON (SMA)
Sun 09:11:00 PM 44.6048 -92.3506 117° Southeast  Level FlightAware Approximate
Sun 09:11:05 PM 44.8708 -92.8233 125° Southeast 349 402 11,300  Level FAA TRACON SMA TRACON (SMA)
Sun 09:11:24 PM 44.8531 -92.7878 125° Southeast 359 413 11,900 1,846 Climbing FAA TRACON SMA TRACON (SMA)
Sun 09:11:44 PM 44.8350 -92.7522 126° Southeast 362 417 12,500 2,100 Climbing FAA TRACON SMA TRACON (SMA)
Sun 09:12:04 PM 44.8133 -92.7069 124° Southeast 364 419 13,300 2,250 Climbing FAA TRACON SMA TRACON (SMA)
Sun 09:12:24 PM 44.7944 -92.6708 126° Southeast 367 422 14,000 1,902 Climbing FAA TRACON SMA TRACON (SMA)
Sun 09:12:45 PM 44.7764 -92.6342 125° Southeast 370 426 14,600 1,902 Climbing FAA TRACON SMA TRACON (SMA)
Sun 09:13:05 PM 44.7539 -92.5875 124° Southeast 374 430 15,300 1,800 Climbing FAA TRACON SMA TRACON (SMA)
Sun 09:13:25 PM 44.7344 -92.5506 127° Southeast 380 437 15,800 1,800 Climbing FAA TRACON SMA TRACON (SMA)
Sun 09:13:45 PM 44.7161 -92.5128 124° Southeast 381 438 16,500 1,950 Climbing FAA TRACON SMA TRACON (SMA)
Sun 09:14:05 PM 44.6928 -92.4658 125° Southeast 381 438 17,100 1,650 Climbing FAA TRACON SMA TRACON (SMA)
Sun 09:14:25 PM 44.6736 -92.4281 125° Southeast 384 442 17,600 1,500 Climbing FAA TRACON SMA TRACON (SMA)
Sun 09:14:45 PM 44.6542 -92.3903 126° Southeast 388 447 18,100 1,800 Climbing FAA TRACON SMA TRACON (SMA)
Sun 09:15:05 PM 44.6314 -92.3419 124° Southeast 386 444 18,800 1,800 Climbing FAA TRACON SMA TRACON (SMA)
Sun 09:15:25 PM 44.6119 -92.3042 126° Southeast 389 448 19,300 1,463 Climbing FAA TRACON SMA TRACON (SMA)
Sun 09:15:46 PM 44.5931 -92.2658 125° Southeast 388 447 19,800 1,350 Climbing FAA TRACON SMA TRACON (SMA)
Sun 09:16:05 PM 44.5689 -92.2175 125° Southeast 391 450 20,200 1,385 Climbing FAA TRACON SMA TRACON (SMA)
Sun 09:16:25 PM 44.5506 -92.1778 123° Southeast 395 455 20,700 1,500 Climbing FAA TRACON SMA TRACON (SMA)
Sun 09:16:45 PM 44.5308 -92.1394 126° Southeast 395 455 21,200 1,500 Climbing FAA TRACON SMA TRACON (SMA)
Sun 09:17:05 PM 44.5058 -92.0911 126° Southeast 398 458 21,700 1,200 Climbing FAA TRACON SMA TRACON (SMA)
Sun 09:17:25 PM 44.4861 -92.0519 125° Southeast 399 459 22,000 1,050 Climbing FAA TRACON SMA TRACON (SMA)
Sun 09:17:45 PM 44.4647 -92.0139 128° Southeast 401 461 22,400 923 Climbing FAA TRACON SMA TRACON (SMA)
Sun 09:18:04 PM 44.4506 -91.9833 123° Southeast 406 467 22,600 923 Climbing FAA TRACON SMA TRACON (SMA)
Sun 09:19:29 PM 44.3500 -91.8014 128° Southeast 412 474 24,000 1,027 Climbing Minneapolis Center
Sun 09:20:30 PM 44.2961 -91.6581 118° Southeast 418 481 25,100 927 Climbing Minneapolis Center
Sun 09:21:32 PM 44.2406 -91.5131 118° Southeast 422 486 25,900 732 Climbing Minneapolis Center
Sun 09:22:33 PM 44.1856 -91.3667 118° Southeast 426 490 26,600 537 Climbing Minneapolis Center
Sun 09:23:35 PM 44.1247 -91.2111 119° Southeast 434 499 27,000 195 Climbing Minneapolis Center
Sun 09:24:36 PM 44.0667 -91.0592 118° Southeast 442 509 27,000  Level Minneapolis Center
Sun 09:25:50 PM 44.0092 -90.9008 117° Southeast 455 524 27,000  Level Minneapolis Center
Sun 09:26:51 PM 43.9750 -90.6547 101° East 466 536 27,000  Level Minneapolis Center
Sun 09:27:53 PM 43.9547 -90.4936 100° East 465 535 27,000  Level Minneapolis Center
Sun 09:28:54 PM 43.9200 -90.2919 103° East 461 531 27,000  Level Minneapolis Center
Sun 09:29:56 PM 43.8653 -90.1317 115° Southeast 456 525 27,000  Level Minneapolis Center
Sun 09:30:57 PM 43.8125 -89.9700 114° Southeast 461 531 27,000  Level Minneapolis Center
Sun 09:31:58 PM 43.7667 -89.8361 115° Southeast 462 532 27,000  Level Minneapolis Center
Sun 09:33:00 PM 43.7061 -89.6472 114° Southeast 461 531 27,000  Level Minneapolis Center
Sun 09:34:01 PM 43.6514 -89.4864 115° Southeast 462 532 27,000  Level Minneapolis Center
Sun 09:35:02 PM 43.5981 -89.3275 115° Southeast 459 528 27,000  Level Minneapolis Center
Sun 09:35:21 PM 43.5803 -89.2742 115° Southeast 460 529 27,000  Level Chicago Center
Sun 09:36:22 PM 43.5258 -89.1153 115° Southeast 460 529 27,000  Level Chicago Center
Sun 09:37:24 PM 43.4719 -88.9550 115° Southeast 460 529 27,000  Level Chicago Center
Sun 09:38:26 PM 43.4078 -88.7692 115° Southeast 463 533 27,000  Level Chicago Center
Sun 09:39:28 PM 43.3533 -88.6119 115° Southeast 463 533 27,000  Level Chicago Center
Sun 09:40:29 PM 43.2983 -88.4553 116° Southeast 466 536 27,000  Level Chicago Center
Sun 09:41:31 PM 43.2439 -88.2981 115° Southeast 463 533 27,000  Level Chicago Center
Sun 09:42:33 PM 43.1797 -88.1144 116° Southeast 459 528 27,000  Level Chicago Center
Sun 09:43:34 PM 43.1236 -87.9564 116° Southeast 461 531 27,000  Level Chicago Center
Sun 09:44:36 PM 43.0672 -87.7981 116° Southeast 463 533 27,000  Level Chicago Center
Sun 09:45:37 PM 43.0117 -87.6411 116° Southeast 461 531 27,000  Level Chicago Center
Sun 09:46:39 PM 42.9553 -87.4839 116° Southeast 461 531 27,000  Level Chicago Center
Sun 09:47:40 PM 42.8939 -87.3125 116° Southeast 463 533 27,000 -49 Level Chicago Center
Sun 09:48:42 PM 42.8367 -87.1569 117° Southeast 462 532 26,900 -732 Descending Chicago Center
Sun 09:49:43 PM 42.7797 -87.0003 116° Southeast 463 533 25,500 -1,415 Descending Chicago Center
Sun 09:50:45 PM 42.7206 -86.8419 117° Southeast 471 542 24,000 -1,694 Descending Chicago Center
Sun 09:51:47 PM 42.6636 -86.6861 116° Southeast 467 537 22,000 -1,951 Descending Chicago Center
Sun 09:52:48 PM 42.6075 -86.5356 117° Southeast 454 522 20,000 -1,951 Descending Chicago Center
Sun 09:53:50 PM 42.5417 -86.3603 117° Southeast 440 506 18,000 -2,195 Descending Chicago Center
Sun 09:54:51 PM 42.4903 -86.2244 117° Southeast 414 476 15,500 -2,439 Descending Chicago Center
Sun 09:55:53 PM 42.4436 -86.0992 117° Southeast 376 433 13,000 -2,195 Descending Chicago Center
Sun 09:56:54 PM 42.4006 -85.9886 118° Southeast 341 392 11,000 -1,721 Descending Chicago Center
Sun 09:57:55 PM 42.3647 -85.8906 116° Southeast 302 348 9,500 -2,293 Descending Chicago Center
Sun 09:58:57 PM 42.3289 -85.8000 118° Southeast 281 323 6,300 -2,683 Descending Chicago Center
Sun 09:59:58 PM 42.3111 -85.7044 104° East 267 307 4,000 -1,902 Descending Chicago Center
Sun 10:01:00 PM 42.3211 -85.6050 82° East 229 264 2,400 -1,548 Descending Chicago Center

Login

Don't have an account? Register now (free) for customized features, flight alerts, and more!